createdAt,value
2023-01-28T00:04:53.103Z,1.08
2023-01-28T00:09:56.661Z,1.23
2023-01-28T00:15:00.142Z,1.15
2023-01-28T00:20:05.255Z,1.10
2023-01-28T00:25:09.172Z,1.35
2023-01-28T00:30:13.893Z,1.20
2023-01-28T00:35:18.811Z,1.42
2023-01-28T00:45:25.492Z,1.65
2023-01-28T00:50:30.433Z,1.20
2023-01-28T00:55:33.883Z,1.13
2023-01-28T01:00:37.557Z,1.40
2023-01-28T01:05:42.400Z,1.50
2023-01-28T01:15:49.102Z,1.48
2023-01-28T01:20:59.365Z,1.50
2023-01-28T01:26:03.636Z,1.80
2023-01-28T01:31:08.879Z,1.67
2023-01-28T01:36:15.275Z,1.88
2023-01-28T01:41:26.695Z,1.85
2023-01-28T01:46:37.817Z,2.10
2023-01-28T01:51:43.253Z,1.90
2023-01-28T01:56:50.907Z,1.67
2023-01-28T02:01:55.566Z,1.77
2023-01-28T02:07:03.036Z,2.00
2023-01-28T02:12:11.351Z,2.13
2023-01-28T02:17:15.561Z,1.98
2023-01-28T02:22:58.082Z,1.80
2023-01-28T02:28:16.260Z,1.80
2023-01-28T02:33:26.363Z,1.73
2023-01-28T02:38:33.651Z,2.00
2023-01-28T02:43:40.704Z,2.00
2023-01-28T02:48:44.387Z,1.73
2023-01-28T02:53:53.550Z,1.45
2023-01-28T02:59:25.279Z,1.80
2023-01-28T03:04:31.643Z,1.75
2023-01-28T03:09:36.227Z,1.75
2023-01-28T03:15:00.406Z,1.92
2023-01-28T03:20:21.863Z,2.22
2023-01-28T03:25:46.036Z,2.15
2023-01-28T03:31:15.585Z,1.98
2023-01-28T03:36:36.852Z,1.73
2023-01-28T03:41:40.626Z,1.98
2023-01-28T03:46:45.615Z,1.73
2023-01-28T03:51:49.210Z,2.10
2023-01-28T03:56:52.872Z,1.85
2023-01-28T04:01:57.909Z,2.20
2023-01-28T04:07:02.058Z,2.22
2023-01-28T04:12:06.663Z,2.60
2023-01-28T04:17:11.722Z,2.38
2023-01-28T04:22:15.416Z,2.42
2023-01-28T04:27:18.940Z,2.65
2023-01-28T04:32:23.639Z,3.38
2023-01-28T04:37:27.245Z,3.05
2023-01-28T04:42:30.721Z,3.38
2023-01-28T04:47:35.658Z,2.80
2023-01-28T04:52:38.966Z,2.85
2023-01-28T04:57:42.584Z,3.00
2023-01-28T05:02:47.348Z,3.00
2023-01-28T05:07:55.032Z,2.80
2023-01-28T05:12:58.517Z,2.90
2023-01-28T05:18:03.516Z,3.00
2023-01-28T05:23:07.031Z,2.72
2023-01-28T05:28:10.583Z,2.60
2023-01-28T05:33:15.340Z,3.38
2023-01-28T05:38:18.922Z,3.05
2023-01-28T05:43:22.307Z,3.05
2023-01-28T05:48:27.316Z,2.83
2023-01-28T05:53:30.888Z,2.85
2023-01-28T05:58:34.503Z,3.17
2023-01-28T06:03:39.388Z,3.45
2023-01-28T06:13:46.103Z,3.05
2023-01-28T06:18:51.051Z,3.00
2023-01-28T06:23:54.435Z,3.13
2023-01-28T06:28:58.177Z,2.95
2023-01-28T06:34:03.125Z,3.50
2023-01-28T06:39:06.888Z,3.53
2023-01-28T06:44:10.410Z,3.70
2023-01-28T06:49:15.410Z,3.13
2023-01-28T06:54:18.904Z,3.40
2023-01-28T06:59:22.483Z,3.63
2023-01-28T07:04:27.257Z,3.45
2023-01-28T07:09:31.057Z,3.63
2023-01-28T07:14:34.385Z,3.80
2023-01-28T07:19:39.728Z,7.00
2023-01-28T07:24:43.212Z,4.93
2023-01-28T07:29:46.765Z,6.07
2023-01-28T07:34:51.588Z,4.30
2023-01-28T07:39:56.465Z,5.50
2023-01-28T07:45:00.031Z,4.72
2023-01-28T07:50:05.223Z,5.38
2023-01-28T07:55:09.405Z,5.22
2023-01-28T08:00:14.459Z,8.88
2023-01-28T08:05:21.659Z,5.30
2023-01-28T08:10:25.630Z,5.50
2023-01-28T08:15:30.117Z,5.88
2023-01-28T08:20:35.008Z,6.80
2023-01-28T08:30:42.893Z,7.20
2023-01-28T08:35:48.153Z,22.63
2023-01-28T08:40:54.305Z,17.65
2023-01-28T08:45:57.611Z,6.22
2023-01-28T08:51:02.501Z,6.03
2023-01-28T09:01:09.253Z,6.32
2023-01-28T09:06:14.047Z,6.45
2023-01-28T09:11:17.813Z,6.47
2023-01-28T09:16:21.452Z,6.32
2023-01-28T09:21:26.362Z,6.55
2023-01-28T09:31:33.229Z,6.55
2023-01-28T09:36:38.113Z,7.30
2023-01-28T09:41:54.202Z,6.93
2023-01-28T09:47:03.850Z,7.18
2023-01-28T09:52:15.981Z,7.00
2023-01-28T09:57:24.368Z,7.28
2023-01-28T10:02:47.297Z,6.25
2023-01-28T10:08:03.276Z,6.88
2023-01-28T10:13:21.907Z,7.43
2023-01-28T10:18:36.244Z,7.07
2023-01-28T10:23:51.536Z,8.07
2023-01-28T10:29:01.934Z,12.23
2023-01-28T10:34:05.594Z,7.97
2023-01-28T10:39:12.896Z,7.75
2023-01-28T10:44:23.293Z,8.57
2023-01-28T10:49:29.213Z,7.97
2023-01-28T10:54:34.051Z,7.25
2023-01-28T10:59:42.011Z,8.15
2023-01-28T11:04:45.479Z,7.28
2023-01-28T11:09:52.243Z,8.30
2023-01-28T11:14:58.113Z,7.97
2023-01-28T11:20:10.348Z,7.60
2023-01-28T11:25:21.010Z,7.82
2023-01-28T11:30:26.877Z,8.15
2023-01-28T11:35:32.315Z,7.88
2023-01-28T11:40:37.349Z,8.55
2023-01-28T11:45:47.171Z,8.95
2023-01-28T11:50:59.243Z,8.25
2023-01-28T11:56:26.709Z,8.50
2023-01-28T12:01:40.773Z,8.35
2023-01-28T12:07:08.122Z,8.63
2023-01-28T12:12:27.084Z,9.98
2023-01-28T12:17:44.104Z,9.52
2023-01-28T12:23:07.765Z,9.88
2023-01-28T12:28:23.883Z,10.60
2023-01-28T12:33:48.332Z,9.93
2023-01-28T12:39:03.284Z,10.07
2023-01-28T12:44:12.694Z,10.00
2023-01-28T12:49:23.505Z,10.60
2023-01-28T12:54:32.727Z,8.88
2023-01-28T12:59:45.749Z,9.23
2023-01-28T13:04:56.045Z,9.20
2023-01-28T13:10:05.222Z,8.75
2023-01-28T13:15:16.732Z,8.25
2023-01-28T13:20:33.184Z,8.95
2023-01-28T13:25:37.163Z,8.63
2023-01-28T13:30:50.846Z,8.73
2023-01-28T13:35:56.905Z,9.65
2023-01-28T13:41:04.868Z,8.77
2023-01-28T13:46:12.737Z,9.35
2023-01-28T13:51:21.737Z,8.75
2023-01-28T13:56:32.122Z,9.00
2023-01-28T14:02:03.906Z,9.23
2023-01-28T14:07:51.662Z,10.07
2023-01-28T14:13:28.560Z,9.52
2023-01-28T14:18:38.661Z,11.02
2023-01-28T14:23:47.581Z,10.32
2023-01-28T14:29:01.553Z,11.05
2023-01-28T14:34:13.822Z,9.60
2023-01-28T14:39:20.148Z,9.70
2023-01-28T14:44:30.114Z,9.90
2023-01-28T14:49:42.654Z,10.40
2023-01-28T14:55:00.162Z,10.05
2023-01-28T15:00:08.593Z,10.50
2023-01-28T15:05:18.315Z,9.90
2023-01-28T15:10:28.998Z,11.23
2023-01-28T15:15:36.707Z,11.15
2023-01-28T15:20:46.506Z,10.75
2023-01-28T15:25:49.990Z,10.63
2023-01-28T15:30:53.661Z,11.23
2023-01-28T15:36:00.151Z,12.18
2023-01-28T15:41:05.182Z,11.60
2023-01-28T15:46:13.440Z,12.27
2023-01-28T15:51:25.240Z,11.30
2023-01-28T15:56:30.275Z,11.98
2023-01-28T16:01:34.037Z,11.98
2023-01-28T16:06:42.102Z,11.35
2023-01-28T16:11:46.079Z,10.52
2023-01-28T16:16:50.267Z,11.37
2023-01-28T16:21:55.333Z,11.88
2023-01-28T16:27:00.115Z,11.73
2023-01-28T16:32:04.675Z,10.55
2023-01-28T16:37:12.412Z,11.40
2023-01-28T16:42:16.009Z,11.95
2023-01-28T16:47:19.580Z,11.90
2023-01-28T16:52:24.521Z,11.98
2023-01-28T16:57:28.511Z,11.43
2023-01-28T17:02:31.858Z,12.43
2023-01-28T17:07:36.874Z,12.55
2023-01-28T17:12:40.256Z,12.63
2023-01-28T17:17:43.864Z,12.18
2023-01-28T17:22:48.738Z,11.75
2023-01-28T17:32:55.871Z,11.30
2023-01-28T17:38:00.865Z,12.53
2023-01-28T17:43:04.245Z,13.15
2023-01-28T17:48:08.049Z,14.27
2023-01-28T17:53:13.139Z,15.80
2023-01-28T17:58:16.943Z,15.30
2023-01-28T18:03:20.313Z,15.80
2023-01-28T18:08:25.638Z,16.55
2023-01-28T18:13:28.962Z,15.88
2023-01-28T18:18:32.703Z,17.40
2023-01-28T18:23:37.613Z,17.13
2023-01-28T18:33:44.548Z,15.10
2023-01-28T18:38:49.576Z,15.70
2023-01-28T18:43:53.035Z,15.15
2023-01-28T18:48:58.088Z,15.98
2023-01-28T18:54:08.027Z,15.32
2023-01-28T18:59:15.276Z,16.20
2023-01-28T19:04:19.092Z,17.33
2023-01-28T19:09:24.135Z,16.73
2023-01-28T19:14:27.495Z,16.60
2023-01-28T19:19:31.252Z,17.92
2023-01-28T19:24:36.621Z,17.50
2023-01-28T19:29:40.220Z,16.95
2023-01-28T19:34:43.722Z,16.63
2023-01-28T19:39:49.147Z,15.82
2023-01-28T19:44:52.691Z,15.85
2023-01-28T19:49:56.345Z,15.88
2023-01-28T19:55:01.304Z,18.42
2023-01-28T20:00:06.021Z,19.58
2023-01-28T20:05:10.368Z,14.80
2023-01-28T20:10:15.353Z,15.10
2023-01-28T20:20:22.300Z,13.63
2023-01-28T20:25:27.303Z,12.45
2023-01-28T20:30:31.134Z,11.93
2023-01-28T20:35:34.710Z,11.90
2023-01-28T20:40:42.663Z,12.48
2023-01-28T20:45:46.136Z,11.88
2023-01-28T20:50:49.690Z,11.68
2023-01-28T20:55:59.269Z,11.70
2023-01-28T21:01:03.172Z,11.35
2023-01-28T21:06:07.085Z,10.90
2023-01-28T21:11:12.574Z,10.43
2023-01-28T21:16:15.932Z,11.18
2023-01-28T21:21:21.296Z,10.02
2023-01-28T21:26:26.445Z,10.50
2023-01-28T21:31:30.106Z,11.32
2023-01-28T21:36:34.568Z,11.27
2023-01-28T21:41:39.565Z,10.32
2023-01-28T21:46:43.264Z,10.75
2023-01-28T21:51:49.832Z,10.05
2023-01-28T21:56:55.126Z,10.57
2023-01-28T22:02:00.738Z,9.70
2023-01-28T22:07:06.428Z,10.77
2023-01-28T22:12:12.168Z,10.68
2023-01-28T22:17:15.836Z,10.82
2023-01-28T22:22:19.521Z,10.43
2023-01-28T22:27:25.737Z,10.77
2023-01-28T22:32:30.478Z,11.20
2023-01-28T22:37:34.067Z,8.98
2023-01-28T22:42:38.834Z,7.47
2023-01-28T22:47:44.511Z,7.70
2023-01-28T22:52:48.961Z,6.80
2023-01-28T22:57:54.042Z,6.60
2023-01-28T23:08:10.654Z,6.43
2023-01-28T23:13:16.313Z,6.03
2023-01-28T23:18:39.739Z,6.20
2023-01-28T23:24:00.412Z,6.32
2023-01-28T23:29:05.590Z,4.25
2023-01-28T23:34:09.714Z,5.53
2023-01-28T23:39:13.602Z,5.38
2023-01-28T23:44:18.635Z,4.78
2023-01-28T23:49:22.591Z,4.05
2023-01-28T23:54:25.984Z,3.93
2023-01-28T23:59:31.253Z,3.97
